createdAt,value
2023-04-04T00:00:39.430Z,10.48
2023-04-04T00:03:07.200Z,10.43
2023-04-04T00:05:36.216Z,10.47
2023-04-04T00:08:04.148Z,10.42
2023-04-04T00:10:31.693Z,10.44
2023-04-04T00:12:59.431Z,10.45
2023-04-04T00:15:29.226Z,10.42
2023-04-04T00:17:57.380Z,10.42
2023-04-04T00:20:26.584Z,10.43
2023-04-04T00:22:54.044Z,10.40
2023-04-04T00:25:24.302Z,10.40
2023-04-04T00:27:52.039Z,10.34
2023-04-04T00:30:19.558Z,10.38
2023-04-04T00:32:47.244Z,10.33
2023-04-04T00:35:17.610Z,10.32
2023-04-04T00:37:45.130Z,10.25
2023-04-04T00:40:12.957Z,10.20
2023-04-04T00:42:41.302Z,10.19
2023-04-04T00:45:09.119Z,10.17
2023-04-04T00:47:38.149Z,10.12
2023-04-04T00:50:07.389Z,10.13
2023-04-04T00:52:37.746Z,10.10
2023-04-04T00:55:05.989Z,10.11
2023-04-04T00:57:34.829Z,10.14
2023-04-04T01:00:07.515Z,10.07
2023-04-04T01:02:36.937Z,10.13
2023-04-04T01:05:04.855Z,10.07
2023-04-04T01:07:33.824Z,10.08
2023-04-04T01:10:04.235Z,10.05
2023-04-04T01:12:32.096Z,10.09
2023-04-04T01:14:59.622Z,10.07
2023-04-04T01:17:28.044Z,10.00
2023-04-04T01:20:03.024Z,10.07
2023-04-04T01:22:39.257Z,10.04
2023-04-04T01:25:08.382Z,10.06
2023-04-04T01:27:39.120Z,10.08
2023-04-04T01:30:14.132Z,10.06
2023-04-04T01:32:41.975Z,10.10
2023-04-04T01:35:21.146Z,10.14
2023-04-04T01:38:24.140Z,10.11
2023-04-04T01:40:57.020Z,10.13
2023-04-04T01:43:25.316Z,10.09
2023-04-04T01:45:53.150Z,10.09
2023-04-04T01:48:20.945Z,10.05
2023-04-04T01:50:52.549Z,10.10
2023-04-04T01:53:21.323Z,10.07
2023-04-04T01:55:49.385Z,10.03
2023-04-04T01:58:18.087Z,10.03
2023-04-04T02:00:46.057Z,10.05
2023-04-04T02:03:13.608Z,10.05
2023-04-04T02:05:41.158Z,10.07
2023-04-04T02:08:10.436Z,10.02
2023-04-04T02:10:46.709Z,9.98
2023-04-04T02:13:14.311Z,9.91
2023-04-04T02:15:42.770Z,9.86
2023-04-04T02:18:10.387Z,9.79
2023-04-04T02:20:38.801Z,9.79
2023-04-04T02:23:06.571Z,9.77
2023-04-04T02:25:34.412Z,9.74
2023-04-04T02:28:01.966Z,9.75
2023-04-04T02:30:29.542Z,9.70
2023-04-04T02:33:00.319Z,9.72
2023-04-04T02:35:28.321Z,9.74
2023-04-04T02:37:56.513Z,9.74
2023-04-04T02:40:28.196Z,9.75
2023-04-04T02:42:56.005Z,9.72
2023-04-04T02:45:23.473Z,9.76
2023-04-04T02:48:00.336Z,9.81
2023-04-04T02:50:39.490Z,9.80
2023-04-04T02:53:08.774Z,9.79
2023-04-04T02:55:37.266Z,9.80
2023-04-04T02:58:04.916Z,9.80
2023-04-04T03:00:32.733Z,9.86
2023-04-04T03:03:00.422Z,9.87
2023-04-04T03:05:32.859Z,9.86
2023-04-04T03:08:00.734Z,9.82
2023-04-04T03:10:32.528Z,9.85
2023-04-04T03:13:00.183Z,9.85
2023-04-04T03:15:30.714Z,9.87
2023-04-04T03:18:00.278Z,9.89
2023-04-04T03:20:31.532Z,9.91
2023-04-04T03:22:59.078Z,9.89
2023-04-04T03:25:27.226Z,9.92
2023-04-04T03:27:55.668Z,9.99
2023-04-04T03:30:27.664Z,9.96
2023-04-04T03:32:56.206Z,10.01
2023-04-04T03:35:23.701Z,10.12
2023-04-04T03:37:51.827Z,10.05
2023-04-04T03:40:21.901Z,10.02
2023-04-04T03:42:49.374Z,10.07
2023-04-04T03:45:20.157Z,10.05
2023-04-04T03:47:47.673Z,10.11
2023-04-04T03:50:15.769Z,10.13
2023-04-04T03:52:49.129Z,10.11
2023-04-04T03:55:16.771Z,10.13
2023-04-04T03:57:44.456Z,10.13
2023-04-04T04:00:15.202Z,10.12
2023-04-04T04:02:44.990Z,10.14
2023-04-04T04:18:44.637Z,10.36
2023-04-04T04:21:17.565Z,10.37
2023-04-04T04:23:45.478Z,10.43
2023-04-04T04:26:12.991Z,10.56
2023-04-04T04:28:41.534Z,10.68
2023-04-04T04:31:14.146Z,10.85
2023-04-04T04:33:46.087Z,11.21
2023-04-04T04:36:13.702Z,11.34
2023-04-04T04:39:02.006Z,11.43
2023-04-04T04:41:33.813Z,11.36
2023-04-04T04:44:02.441Z,11.35
2023-04-04T04:46:30.247Z,11.28
2023-04-04T04:48:59.399Z,11.25
2023-04-04T04:51:30.786Z,11.22
2023-04-04T04:53:59.728Z,11.26
2023-04-04T04:56:29.285Z,11.36
2023-04-04T04:59:07.020Z,11.59
2023-04-04T05:01:34.856Z,11.67
2023-04-04T05:04:02.484Z,11.77
2023-04-04T05:06:40.184Z,11.85
2023-04-04T05:09:10.259Z,11.91
2023-04-04T05:11:39.211Z,11.97
2023-04-04T05:14:09.554Z,12.00
2023-04-04T05:16:46.352Z,12.01
2023-04-04T05:19:15.170Z,12.06
2023-04-04T05:21:48.254Z,12.12
2023-04-04T05:24:27.690Z,12.44
2023-04-04T05:26:55.685Z,12.71
2023-04-04T05:29:23.447Z,12.82
2023-04-04T05:31:50.884Z,12.92
2023-04-04T05:34:21.477Z,13.00
2023-04-04T05:36:53.176Z,13.05
2023-04-04T05:39:20.779Z,13.18
2023-04-04T05:42:00.593Z,13.47
2023-04-04T05:44:31.714Z,13.60
2023-04-04T05:46:59.236Z,13.57
2023-04-04T05:49:28.496Z,13.60
2023-04-04T05:51:59.191Z,13.51
2023-04-04T05:54:27.535Z,13.42
2023-04-04T05:56:56.617Z,13.28
2023-04-04T05:59:41.372Z,13.20
2023-04-04T06:02:11.140Z,13.30
2023-04-04T06:04:42.166Z,13.22
2023-04-04T06:07:11.809Z,13.37
2023-04-04T06:09:40.058Z,13.39
2023-04-04T06:12:09.300Z,13.47
2023-04-04T06:14:37.611Z,13.45
2023-04-04T06:17:07.059Z,13.39
2023-04-04T06:19:35.820Z,13.43
2023-04-04T06:22:03.413Z,13.34
2023-04-04T06:24:35.545Z,13.32
2023-04-04T06:27:04.781Z,13.50
2023-04-04T06:29:33.461Z,13.79
2023-04-04T06:32:02.637Z,14.33
2023-04-04T06:34:37.204Z,15.05
2023-04-04T06:37:05.272Z,15.89
2023-04-04T06:39:39.153Z,16.63
2023-04-04T06:42:12.788Z,17.23
2023-04-04T06:44:47.333Z,17.89
2023-04-04T06:47:15.114Z,18.55
2023-04-04T06:49:42.576Z,18.93
2023-04-04T06:52:11.692Z,18.59
2023-04-04T06:54:39.458Z,18.07
2023-04-04T06:57:06.986Z,17.67
2023-04-04T06:59:34.423Z,17.19
2023-04-04T07:02:04.102Z,16.82
2023-04-04T07:04:34.889Z,16.47
2023-04-04T07:07:02.857Z,16.23
2023-04-04T07:09:30.684Z,16.12
2023-04-04T07:11:58.295Z,16.08
2023-04-04T07:14:26.063Z,16.21
2023-04-04T07:16:55.292Z,16.23
2023-04-04T07:19:28.593Z,16.31
2023-04-04T07:21:57.024Z,16.37
2023-04-04T07:24:24.560Z,16.40
2023-04-04T07:26:52.164Z,16.39
2023-04-04T07:29:21.612Z,16.50
2023-04-04T07:31:49.194Z,16.59
2023-04-04T07:34:17.206Z,16.68
2023-04-04T07:36:44.644Z,16.74
2023-04-04T07:39:12.267Z,16.88
2023-04-04T07:41:40.015Z,17.13
2023-04-04T07:44:07.665Z,17.39
2023-04-04T07:46:35.121Z,17.83
2023-04-04T07:49:02.698Z,18.48
2023-04-04T07:51:31.097Z,19.39
2023-04-04T07:53:58.640Z,20.10
2023-04-04T07:56:26.272Z,20.83
2023-04-04T07:58:53.796Z,21.51
2023-04-04T08:01:21.527Z,22.49
2023-04-04T08:03:50.365Z,23.07
2023-04-04T08:06:18.125Z,23.79
2023-04-04T08:08:47.259Z,24.97
2023-04-04T08:11:14.891Z,25.98
2023-04-04T08:13:42.785Z,26.10
2023-04-04T08:16:10.373Z,25.99
2023-04-04T08:18:38.801Z,26.19
2023-04-04T08:21:06.338Z,26.57
2023-04-04T08:23:33.770Z,27.22
2023-04-04T08:26:01.270Z,27.85
2023-04-04T08:28:29.001Z,28.18
2023-04-04T08:30:56.957Z,28.61
2023-04-04T08:33:31.383Z,28.70
2023-04-04T08:36:05.192Z,28.65
2023-04-04T08:38:32.860Z,28.59
2023-04-04T08:41:00.913Z,28.89
2023-04-04T08:43:29.266Z,28.63
2023-04-04T08:45:57.990Z,28.04
2023-04-04T08:48:29.974Z,27.12
2023-04-04T08:50:59.873Z,26.21
2023-04-04T08:53:29.647Z,25.14
2023-04-04T08:56:00.171Z,24.50
2023-04-04T08:58:27.924Z,24.08
2023-04-04T09:00:56.587Z,23.41
2023-04-04T09:03:29.484Z,22.91
2023-04-04T09:05:57.894Z,22.57
2023-04-04T09:08:28.461Z,22.38
2023-04-04T09:10:56.874Z,22.38
2023-04-04T09:13:24.494Z,22.28
2023-04-04T09:15:54.906Z,22.03
2023-04-04T09:18:22.579Z,21.82
2023-04-04T09:20:50.597Z,21.66
2023-04-04T09:23:24.023Z,21.49
2023-04-04T09:26:03.117Z,21.30
2023-04-04T09:28:33.350Z,21.43
2023-04-04T09:31:05.822Z,21.22
2023-04-04T09:33:34.794Z,20.98
2023-04-04T09:36:07.300Z,21.08
2023-04-04T09:38:39.178Z,20.91
2023-04-04T09:41:09.948Z,20.60
2023-04-04T09:43:39.875Z,19.96
2023-04-04T09:46:08.205Z,19.65
2023-04-04T09:48:37.288Z,19.62
2023-04-04T09:51:06.521Z,19.58
2023-04-04T09:53:39.980Z,19.92
2023-04-04T09:56:08.450Z,20.91
2023-04-04T09:58:46.363Z,21.15
2023-04-04T10:01:20.920Z,21.16
2023-04-04T10:03:53.870Z,20.96
2023-04-04T10:06:22.548Z,20.83
2023-04-04T10:08:50.541Z,21.19
2023-04-04T10:11:33.641Z,22.59
2023-04-04T10:14:03.954Z,25.00
2023-04-04T10:16:38.343Z,27.24
2023-04-04T10:19:08.066Z,29.19
2023-04-04T10:21:38.724Z,30.37
2023-04-04T10:24:10.126Z,31.08
2023-04-04T10:26:38.044Z,30.95
2023-04-04T10:29:06.122Z,29.50
2023-04-04T10:31:41.527Z,27.99
2023-04-04T10:34:28.720Z,27.13
2023-04-04T10:37:10.108Z,26.16
2023-04-04T10:39:52.251Z,25.49
2023-04-04T10:42:19.985Z,24.56
2023-04-04T10:44:47.741Z,23.80
2023-04-04T10:47:19.750Z,23.04
2023-04-04T10:49:48.574Z,22.39
2023-04-04T10:52:18.996Z,21.99
2023-04-04T10:54:48.435Z,21.78
2023-04-04T10:57:16.507Z,21.70
2023-04-04T11:00:00.281Z,21.89
2023-04-04T11:02:53.567Z,21.86
2023-04-04T11:05:30.656Z,21.52
2023-04-04T11:08:08.583Z,21.47
2023-04-04T11:10:39.365Z,20.97
2023-04-04T11:13:29.295Z,20.68
2023-04-04T11:16:01.035Z,19.89
2023-04-04T11:18:41.689Z,19.56
2023-04-04T11:21:13.963Z,19.03
2023-04-04T11:23:47.596Z,18.75
2023-04-04T11:26:30.121Z,18.54
2023-04-04T11:28:59.499Z,18.30
2023-04-04T11:31:28.374Z,18.40
2023-04-04T11:34:04.292Z,18.24
2023-04-04T11:36:37.975Z,18.30
2023-04-04T11:39:19.900Z,18.02
2023-04-04T11:41:58.892Z,17.94
2023-04-04T11:44:30.746Z,17.80
2023-04-04T11:47:09.524Z,17.74
2023-04-04T11:49:42.826Z,17.70
2023-04-04T11:52:16.039Z,17.60
2023-04-04T11:54:45.606Z,17.49
2023-04-04T11:57:18.100Z,17.34
2023-04-04T11:59:47.638Z,17.24
2023-04-04T12:02:32.305Z,17.35
2023-04-04T12:05:00.713Z,17.16
2023-04-04T12:07:34.408Z,17.03
2023-04-04T12:10:03.161Z,16.88
2023-04-04T12:12:31.186Z,16.82
2023-04-04T12:15:06.622Z,16.76
2023-04-04T12:17:44.200Z,16.77
2023-04-04T12:20:11.980Z,16.77
2023-04-04T12:22:40.539Z,16.81
2023-04-04T12:25:08.757Z,16.88
2023-04-04T12:27:37.042Z,16.92
2023-04-04T12:30:08.026Z,17.13
2023-04-04T12:32:35.760Z,17.55
2023-04-04T12:35:04.247Z,18.04
2023-04-04T12:37:33.304Z,18.37
2023-04-04T12:40:02.514Z,18.52
2023-04-04T12:42:32.059Z,18.68
2023-04-04T12:45:02.379Z,18.66
2023-04-04T12:47:31.463Z,18.66
2023-04-04T12:49:59.004Z,18.70
2023-04-04T12:52:32.517Z,18.49
2023-04-04T12:55:09.493Z,18.37
2023-04-04T12:57:40.194Z,18.21
2023-04-04T13:00:09.487Z,18.23
2023-04-04T13:02:46.066Z,18.23
2023-04-04T13:05:14.394Z,18.17
2023-04-04T13:07:45.119Z,18.15
2023-04-04T13:10:16.555Z,18.14
2023-04-04T13:12:59.017Z,18.09
2023-04-04T13:15:49.608Z,17.96
2023-04-04T13:18:22.040Z,17.67
2023-04-04T13:20:50.904Z,17.69
2023-04-04T13:23:18.936Z,17.69
2023-04-04T13:25:47.925Z,17.67
2023-04-04T13:28:15.824Z,17.63
2023-04-04T13:30:49.623Z,17.58
2023-04-04T13:33:18.645Z,17.43
2023-04-04T13:35:46.729Z,17.32
2023-04-04T13:38:14.357Z,17.24
2023-04-04T13:40:41.922Z,17.11
2023-04-04T13:43:11.639Z,17.00
2023-04-04T13:45:39.473Z,16.88
2023-04-04T13:48:07.266Z,16.77
2023-04-04T13:50:37.559Z,16.71
2023-04-04T13:53:05.326Z,16.57
2023-04-04T13:55:32.842Z,16.55
2023-04-04T13:58:00.450Z,16.51
2023-04-04T14:00:28.543Z,16.45
2023-04-04T14:02:57.813Z,16.42
2023-04-04T14:05:25.711Z,16.34
2023-04-04T14:07:53.139Z,16.29
2023-04-04T14:10:21.015Z,16.26
2023-04-04T14:12:48.466Z,16.23
2023-04-04T14:15:16.097Z,16.18
2023-04-04T14:17:43.729Z,16.13
2023-04-04T14:20:11.858Z,16.10
2023-04-04T14:22:39.592Z,16.10
2023-04-04T14:25:07.489Z,16.05
2023-04-04T14:27:35.023Z,16.04
2023-04-04T14:30:10.219Z,15.94
2023-04-04T14:32:37.893Z,16.03
2023-04-04T14:35:06.285Z,15.96
2023-04-04T14:37:33.911Z,15.91
2023-04-04T14:40:01.431Z,15.87
2023-04-04T14:42:31.060Z,15.84
2023-04-04T14:44:58.826Z,15.85
2023-04-04T14:47:26.371Z,15.79
2023-04-04T14:49:54.995Z,15.72
2023-04-04T14:52:23.591Z,15.66
2023-04-04T14:54:51.116Z,15.63
2023-04-04T14:57:18.640Z,15.55
2023-04-04T14:59:46.087Z,15.40
2023-04-04T15:02:13.665Z,15.43
2023-04-04T15:04:42.704Z,15.34
2023-04-04T15:07:10.350Z,15.35
2023-04-04T15:09:37.762Z,15.28
2023-04-04T15:12:05.542Z,15.19
2023-04-04T15:14:33.121Z,15.16
2023-04-04T15:17:00.851Z,15.13
2023-04-04T15:19:28.656Z,15.04
2023-04-04T15:21:57.239Z,15.05
2023-04-04T15:24:24.849Z,15.00
2023-04-04T15:26:52.422Z,14.97
2023-04-04T15:29:19.890Z,14.95
2023-04-04T15:31:47.814Z,14.91
2023-04-04T15:34:15.503Z,14.86
2023-04-04T15:36:44.384Z,14.83
2023-04-04T15:39:12.102Z,14.80
2023-04-04T15:41:39.569Z,14.76
2023-04-04T15:44:09.546Z,14.76
2023-04-04T15:46:39.363Z,14.69
2023-04-04T15:49:07.273Z,14.67
2023-04-04T15:51:34.886Z,14.60
2023-04-04T15:54:02.624Z,14.59
2023-04-04T15:56:30.633Z,14.53
2023-04-04T15:58:58.359Z,14.45
2023-04-04T16:01:27.042Z,14.39
2023-04-04T16:03:54.754Z,14.41
2023-04-04T16:06:22.228Z,14.43
2023-04-04T16:08:49.776Z,14.44
2023-04-04T16:11:19.295Z,14.41
2023-04-04T16:13:47.217Z,14.39
2023-04-04T16:16:14.941Z,14.39
2023-04-04T16:18:42.560Z,14.33
2023-04-04T16:21:10.229Z,14.30
2023-04-04T16:23:39.202Z,14.23
2023-04-04T16:26:06.822Z,14.25
2023-04-04T16:28:34.349Z,14.29
2023-04-04T16:31:02.511Z,14.25
2023-04-04T16:33:30.480Z,14.29
2023-04-04T16:35:58.042Z,14.21
2023-04-04T16:38:25.491Z,14.19
2023-04-04T16:40:52.971Z,14.15
2023-04-04T16:43:23.889Z,14.13
2023-04-04T16:45:52.766Z,14.08
2023-04-04T16:48:20.323Z,14.06
2023-04-04T16:50:48.224Z,14.02
2023-04-04T16:53:15.906Z,14.01
2023-04-04T16:55:43.628Z,13.98
2023-04-04T16:58:11.358Z,13.92
2023-04-04T17:00:39.450Z,13.93
2023-04-04T17:03:07.191Z,13.91
2023-04-04T17:05:34.737Z,13.88
2023-04-04T17:08:02.280Z,13.87
2023-04-04T17:10:29.870Z,13.77
2023-04-04T17:12:58.318Z,13.80
2023-04-04T17:15:26.318Z,13.90
2023-04-04T17:17:53.850Z,13.85
2023-04-04T17:20:21.975Z,13.81
2023-04-04T17:22:51.760Z,13.76
2023-04-04T17:25:21.092Z,13.73
2023-04-04T17:27:48.693Z,13.70
2023-04-04T17:30:16.843Z,13.69
2023-04-04T17:32:47.220Z,13.64
2023-04-04T17:35:15.895Z,13.59
2023-04-04T17:37:43.395Z,13.56
2023-04-04T17:40:11.688Z,13.49
2023-04-04T17:42:39.749Z,13.50
2023-04-04T17:45:08.773Z,13.42
2023-04-04T17:47:36.374Z,13.43
2023-04-04T17:50:05.136Z,13.43
2023-04-04T17:52:33.466Z,13.40
2023-04-04T17:55:01.688Z,13.38
2023-04-04T17:57:30.779Z,13.39
2023-04-04T17:59:58.533Z,13.33
2023-04-04T18:02:26.279Z,13.31
2023-04-04T18:04:54.105Z,13.26
2023-04-04T18:07:22.037Z,13.28
2023-04-04T18:09:49.547Z,13.25
2023-04-04T18:12:18.549Z,13.23
2023-04-04T18:14:46.207Z,13.22
2023-04-04T18:17:13.976Z,13.21
2023-04-04T18:19:42.644Z,13.15
2023-04-04T18:22:10.135Z,13.09
2023-04-04T18:24:37.828Z,13.07
2023-04-04T18:27:05.248Z,13.02
2023-04-04T18:29:32.871Z,13.01
2023-04-04T18:32:04.141Z,12.97
2023-04-04T18:34:31.773Z,12.93
2023-04-04T18:36:59.311Z,12.93
2023-04-04T18:39:27.703Z,12.81
2023-04-04T18:41:55.462Z,12.77
2023-04-04T18:44:23.058Z,12.68
2023-04-04T18:46:51.047Z,12.65
2023-04-04T18:49:30.291Z,12.57
2023-04-04T18:52:18.463Z,12.55
2023-04-04T18:54:46.307Z,12.49
2023-04-04T18:57:14.769Z,12.41
2023-04-04T18:59:42.428Z,12.33
2023-04-04T19:02:09.920Z,12.32
2023-04-04T19:04:39.719Z,12.24
2023-04-04T19:07:24.754Z,12.19
2023-04-04T19:09:52.973Z,12.12
2023-04-04T19:12:20.482Z,12.09
2023-04-04T19:14:48.222Z,12.03
2023-04-04T19:17:18.147Z,12.02
2023-04-04T19:19:45.858Z,11.99
2023-04-04T19:22:13.349Z,11.94
2023-04-04T19:24:42.401Z,11.88
2023-04-04T19:27:10.231Z,11.84
2023-04-04T19:29:37.890Z,11.79
2023-04-04T19:32:16.215Z,11.78
2023-04-04T19:34:44.350Z,11.71
2023-04-04T19:37:13.763Z,11.69
2023-04-04T19:39:44.976Z,11.66
2023-04-04T19:42:12.575Z,11.65
2023-04-04T19:44:41.227Z,11.60
2023-04-04T19:47:17.993Z,11.59
2023-04-04T19:49:45.616Z,11.54
2023-04-04T19:52:14.398Z,11.56
2023-04-04T19:54:43.045Z,11.52
2023-04-04T19:57:20.869Z,11.52
2023-04-04T20:00:01.928Z,11.47
2023-04-04T20:02:39.181Z,11.43
2023-04-04T20:05:32.456Z,11.49
2023-04-04T20:08:01.389Z,11.36
2023-04-04T20:14:23.605Z,11.37
2023-04-04T20:21:37.441Z,11.37
2023-04-04T20:24:26.318Z,11.26
2023-04-04T20:27:39.700Z,11.24
2023-04-04T20:30:50.786Z,11.26
2023-04-04T20:38:44.960Z,11.23
2023-04-04T20:41:19.651Z,11.12
2023-04-04T20:43:51.782Z,11.04
2023-04-04T20:46:21.065Z,11.06
2023-04-04T20:48:50.662Z,11.02
2023-04-04T20:51:24.620Z,11.05
2023-04-04T20:53:53.631Z,11.01
2023-04-04T20:56:39.918Z,11.10
2023-04-04T20:59:27.724Z,11.02
2023-04-04T21:01:56.264Z,11.04
2023-04-04T21:04:25.564Z,11.01
2023-04-04T21:06:53.769Z,11.00
2023-04-04T21:09:21.569Z,11.01
2023-04-04T21:11:49.120Z,11.01
2023-04-04T21:14:24.093Z,11.05
2023-04-04T21:16:51.950Z,10.97
2023-04-04T21:19:21.758Z,10.96
2023-04-04T21:21:51.063Z,10.93
2023-04-04T21:24:19.300Z,10.96
2023-04-04T21:26:47.197Z,10.91
2023-04-04T21:29:25.242Z,10.89
2023-04-04T21:31:55.208Z,10.83
2023-04-04T21:34:27.473Z,10.84
2023-04-04T21:37:01.860Z,10.84
2023-04-04T21:39:30.598Z,10.75
2023-04-04T21:42:08.491Z,10.79
2023-04-04T21:44:36.714Z,10.74
2023-04-04T21:47:04.213Z,10.73
2023-04-04T21:49:31.673Z,10.68
2023-04-04T21:51:59.266Z,10.70
2023-04-04T21:54:26.672Z,10.67
2023-04-04T21:56:54.356Z,10.68
2023-04-04T21:59:21.851Z,10.65
2023-04-04T22:01:50.732Z,10.62
2023-04-04T22:04:18.563Z,10.62
2023-04-04T22:06:46.420Z,10.60
2023-04-04T22:09:15.495Z,10.58
2023-04-04T22:11:44.589Z,10.56
2023-04-04T22:14:18.215Z,10.54
2023-04-04T22:16:46.140Z,10.47
2023-04-04T22:19:18.791Z,10.45
2023-04-04T22:21:47.267Z,10.42
2023-04-04T22:24:15.949Z,10.40
2023-04-04T22:26:45.821Z,10.30
2023-04-04T22:29:13.694Z,10.33
2023-04-04T22:31:41.520Z,10.24
2023-04-04T22:34:09.628Z,10.22
2023-04-04T22:36:38.766Z,10.18
2023-04-04T22:39:08.709Z,10.18
2023-04-04T22:41:36.192Z,10.16
2023-04-04T22:44:04.870Z,10.11
2023-04-04T22:46:32.430Z,10.09
2023-04-04T22:49:07.107Z,10.07
2023-04-04T22:51:44.184Z,10.04
2023-04-04T22:54:14.674Z,10.02
2023-04-04T22:56:42.467Z,10.02
2023-04-04T22:59:10.214Z,9.97
2023-04-04T23:01:38.099Z,9.96
2023-04-04T23:04:06.218Z,9.90
2023-04-04T23:06:33.724Z,9.91
2023-04-04T23:09:02.033Z,9.91
2023-04-04T23:11:30.665Z,9.86
2023-04-04T23:13:58.200Z,9.82
2023-04-04T23:16:26.506Z,9.80
2023-04-04T23:18:54.425Z,9.79
2023-04-04T23:21:22.173Z,9.78
2023-04-04T23:23:49.864Z,9.72
2023-04-04T23:26:17.277Z,9.69
2023-04-04T23:28:44.770Z,9.68
2023-04-04T23:31:12.256Z,9.64
2023-04-04T23:33:39.916Z,9.67
2023-04-04T23:36:07.990Z,9.61
2023-04-04T23:38:35.967Z,9.60
2023-04-04T23:41:03.619Z,9.60
2023-04-04T23:43:31.389Z,9.58
2023-04-04T23:46:00.500Z,9.57
2023-04-04T23:48:28.729Z,9.58
2023-04-04T23:50:56.853Z,9.55
2023-04-04T23:53:24.470Z,9.55
2023-04-04T23:55:52.013Z,9.49
2023-04-04T23:58:19.762Z,9.47
